sensor_id;sensor_type;location;lat;lon;timestamp;pressure;altitude;pressure_sealevel;temperature;humidity
75699;BME280;64313;51.018;13.742;2023-03-12T00:00:29;99314.84;;;0.06;67.74
75699;BME280;64313;51.018;13.742;2023-03-12T00:02:55;99318.59;;;0.03;67.82
75699;BME280;64313;51.018;13.742;2023-03-12T00:05:21;99318.19;;;-0.02;67.52
75699;BME280;64313;51.018;13.742;2023-03-12T00:07:47;99315.81;;;-0.05;68.00
75699;BME280;64313;51.018;13.742;2023-03-12T00:10:12;99320.94;;;-0.04;68.03
75699;BME280;64313;51.018;13.742;2023-03-12T00:12:37;99314.97;;;-0.06;67.80
75699;BME280;64313;51.018;13.742;2023-03-12T00:15:03;99323.97;;;-0.08;67.22
75699;BME280;64313;51.018;13.742;2023-03-12T00:17:29;99318.03;;;-0.10;67.82
75699;BME280;64313;51.018;13.742;2023-03-12T00:19:54;99317.38;;;-0.12;67.59
75699;BME280;64313;51.018;13.742;2023-03-12T00:22:20;99323.84;;;-0.16;67.72
75699;BME280;64313;51.018;13.742;2023-03-12T00:24:50;99328.97;;;-0.15;68.01
75699;BME280;64313;51.018;13.742;2023-03-12T00:27:16;99320.41;;;-0.17;67.97
75699;BME280;64313;51.018;13.742;2023-03-12T00:29:42;99320.69;;;-0.20;67.78
75699;BME280;64313;51.018;13.742;2023-03-12T00:32:07;99326.06;;;-0.22;68.22
75699;BME280;64313;51.018;13.742;2023-03-12T00:34:32;99329.69;;;-0.23;67.76
75699;BME280;64313;51.018;13.742;2023-03-12T00:36:58;99324.56;;;-0.24;68.33
75699;BME280;64313;51.018;13.742;2023-03-12T00:39:23;99323.88;;;-0.26;67.76
75699;BME280;64313;51.018;13.742;2023-03-12T00:41:49;99332.56;;;-0.35;68.16
75699;BME280;64313;51.018;13.742;2023-03-12T00:44:14;99324.16;;;-0.29;67.91
75699;BME280;64313;51.018;13.742;2023-03-12T00:46:39;99326.06;;;-0.31;68.19
75699;BME280;64313;51.018;13.742;2023-03-12T00:49:05;99324.16;;;-0.29;67.79
75699;BME280;64313;51.018;13.742;2023-03-12T00:51:30;99331.75;;;-0.26;68.41
75699;BME280;64313;51.018;13.742;2023-03-12T00:53:55;99333.13;;;-0.32;68.15
75699;BME280;64313;51.018;13.742;2023-03-12T00:56:21;99329.53;;;-0.31;68.27
75699;BME280;64313;51.018;13.742;2023-03-12T00:58:46;99328.84;;;-0.33;68.08
75699;BME280;64313;51.018;13.742;2023-03-12T01:01:11;99332.84;;;-0.29;68.36
75699;BME280;64313;51.018;13.742;2023-03-12T01:03:37;99330.22;;;-0.29;67.75
75699;BME280;64313;51.018;13.742;2023-03-12T01:06:02;99331.50;;;-0.33;67.87
75699;BME280;64313;51.018;13.742;2023-03-12T01:08:29;99335.47;;;-0.38;67.93
75699;BME280;64313;51.018;13.742;2023-03-12T01:10:54;99328.28;;;-0.36;68.01
75699;BME280;64313;51.018;13.742;2023-03-12T01:13:19;99330.91;;;-0.36;67.65
75699;BME280;64313;51.018;13.742;2023-03-12T01:15:45;99332.03;;;-0.39;68.06
75699;BME280;64313;51.018;13.742;2023-03-12T01:18:11;99327.59;;;-0.38;68.10
75699;BME280;64313;51.018;13.742;2023-03-12T01:20:37;99329.28;;;-0.37;67.94
75699;BME280;64313;51.018;13.742;2023-03-12T01:23:03;99330.09;;;-0.37;68.08
75699;BME280;64313;51.018;13.742;2023-03-12T01:25:28;99331.75;;;-0.36;67.86
75699;BME280;64313;51.018;13.742;2023-03-12T01:27:53;99329.00;;;-0.34;68.28
75699;BME280;64313;51.018;13.742;2023-03-12T01:30:19;99337.69;;;-0.34;67.79
75699;BME280;64313;51.018;13.742;2023-03-12T01:32:44;99331.63;;;-0.34;67.75
75699;BME280;64313;51.018;13.742;2023-03-12T01:35:09;99336.16;;;-0.36;67.85
75699;BME280;64313;51.018;13.742;2023-03-12T01:37:35;99333.66;;;-0.38;67.39
75699;BME280;64313;51.018;13.742;2023-03-12T01:40:00;99337.81;;;-0.35;67.50
75699;BME280;64313;51.018;13.742;2023-03-12T01:42:25;99342.66;;;-0.40;67.17
75699;BME280;64313;51.018;13.742;2023-03-12T01:44:57;99334.78;;;-0.40;67.89
75699;BME280;64313;51.018;13.742;2023-03-12T01:47:24;99341.84;;;-0.41;67.26
75699;BME280;64313;51.018;13.742;2023-03-12T01:49:52;99339.22;;;-0.41;67.95
75699;BME280;64313;51.018;13.742;2023-03-12T01:52:31;99341.00;;;-0.41;67.46
75699;BME280;64313;51.018;13.742;2023-03-12T01:55:00;99345.56;;;-0.44;68.01
75699;BME280;64313;51.018;13.742;2023-03-12T01:57:37;99347.78;;;-0.49;67.81
75699;BME280;64313;51.018;13.742;2023-03-12T02:00:11;99347.94;;;-0.50;67.80
75699;BME280;64313;51.018;13.742;2023-03-12T02:02:42;99345.31;;;-0.50;67.45
75699;BME280;64313;51.018;13.742;2023-03-12T02:05:18;99342.41;;;-0.47;67.74
75699;BME280;64313;51.018;13.742;2023-03-12T02:07:46;99340.59;;;-0.47;67.67
75699;BME280;64313;51.018;13.742;2023-03-12T02:10:11;99344.19;;;-0.48;67.35
75699;BME280;64313;51.018;13.742;2023-03-12T02:12:36;99337.97;;;-0.47;67.66
75699;BME280;64313;51.018;13.742;2023-03-12T02:15:02;99335.34;;;-0.47;67.81
75699;BME280;64313;51.018;13.742;2023-03-12T02:17:28;99335.63;;;-0.50;67.59
75699;BME280;64313;51.018;13.742;2023-03-12T02:20:14;99339.78;;;-0.47;67.72
75699;BME280;64313;51.018;13.742;2023-03-12T02:22:45;99340.06;;;-0.50;67.27
75699;BME280;64313;51.018;13.742;2023-03-12T02:25:29;99335.34;;;-0.47;67.25
75699;BME280;64313;51.018;13.742;2023-03-12T02:28:02;99341.28;;;-0.54;67.52
75699;BME280;64313;51.018;13.742;2023-03-12T02:30:30;99338.94;;;-0.57;66.85
75699;BME280;64313;51.018;13.742;2023-03-12T02:32:57;99348.03;;;-0.61;67.60
75699;BME280;64313;51.018;13.742;2023-03-12T02:35:23;99346.41;;;-0.62;67.02
75699;BME280;64313;51.018;13.742;2023-03-12T02:37:50;99340.16;;;-0.61;67.11
75699;BME280;64313;51.018;13.742;2023-03-12T02:40:27;99346.81;;;-0.57;67.04
75699;BME280;64313;51.018;13.742;2023-03-12T02:42:54;99346.81;;;-0.57;67.54
75699;BME280;64313;51.018;13.742;2023-03-12T02:45:19;99349.44;;;-0.57;67.06
75699;BME280;64313;51.018;13.742;2023-03-12T02:47:45;99356.50;;;-0.58;66.53
75699;BME280;64313;51.018;13.742;2023-03-12T02:50:11;99354.41;;;-0.54;67.36
75699;BME280;64313;51.018;13.742;2023-03-12T02:52:36;99350.97;;;-0.55;66.84
75699;BME280;64313;51.018;13.742;2023-03-12T02:55:03;99362.69;;;-0.59;66.56
75699;BME280;64313;51.018;13.742;2023-03-12T02:57:29;99366.13;;;-0.58;67.07
75699;BME280;64313;51.018;13.742;2023-03-12T02:59:55;99357.72;;;-0.62;66.75
75699;BME280;64313;51.018;13.742;2023-03-12T03:02:20;99361.16;;;-0.61;66.57
75699;BME280;64313;51.018;13.742;2023-03-12T03:04:46;99364.78;;;-0.62;66.44
75699;BME280;64313;51.018;13.742;2023-03-12T03:07:11;99365.72;;;-0.63;67.04
75699;BME280;64313;51.018;13.742;2023-03-12T03:09:39;99363.78;;;-0.61;66.70
75699;BME280;64313;51.018;13.742;2023-03-12T03:12:05;99363.50;;;-0.58;66.82
75699;BME280;64313;51.018;13.742;2023-03-12T03:14:32;99362.69;;;-0.59;66.59
75699;BME280;64313;51.018;13.742;2023-03-12T03:16:58;99366.41;;;-0.61;66.70
75699;BME280;64313;51.018;13.742;2023-03-12T03:19:23;99367.00;;;-0.58;66.22
75699;BME280;64313;51.018;13.742;2023-03-12T03:21:48;99365.47;;;-0.60;66.37
75699;BME280;64313;51.018;13.742;2023-03-12T03:24:14;99364.78;;;-0.62;66.32
75699;BME280;64313;51.018;13.742;2023-03-12T03:26:39;99381.34;;;-0.62;66.66
75699;BME280;64313;51.018;13.742;2023-03-12T03:29:04;99378.56;;;-0.70;66.32
75699;BME280;64313;51.018;13.742;2023-03-12T03:31:30;99382.84;;;-0.69;66.25
75699;BME280;64313;51.018;13.742;2023-03-12T03:33:55;99379.13;;;-0.67;66.60
75699;BME280;64313;51.018;13.742;2023-03-12T03:36:21;99396.66;;;-0.67;66.35
75699;BME280;64313;51.018;13.742;2023-03-12T03:39:04;99398.47;;;-0.68;66.61
75699;BME280;64313;51.018;13.742;2023-03-12T03:41:30;99396.94;;;-0.70;65.57
75699;BME280;64313;51.018;13.742;2023-03-12T03:43:57;99402.44;;;-0.73;66.75
75699;BME280;64313;51.018;13.742;2023-03-12T03:46:23;99408.53;;;-0.73;66.31
75699;BME280;64313;51.018;13.742;2023-03-12T03:48:56;99412.94;;;-0.73;66.46
75699;BME280;64313;51.018;13.742;2023-03-12T03:51:21;99414.59;;;-0.72;66.72
75699;BME280;64313;51.018;13.742;2023-03-12T03:53:51;99410.19;;;-0.72;66.40
75699;BME280;64313;51.018;13.742;2023-03-12T03:56:17;99416.97;;;-0.69;67.02
75699;BME280;64313;51.018;13.742;2023-03-12T03:58:46;99410.72;;;-0.68;66.36
75699;BME280;64313;51.018;13.742;2023-03-12T04:01:13;99406.34;;;-0.68;66.05
75699;BME280;64313;51.018;13.742;2023-03-12T04:03:39;99399.41;;;-0.69;66.53
75699;BME280;64313;51.018;13.742;2023-03-12T04:06:05;99398.59;;;-0.69;66.12
75699;BME280;64313;51.018;13.742;2023-03-12T04:08:33;99411.84;;;-0.71;65.70
75699;BME280;64313;51.018;13.742;2023-03-12T04:11:08;99399.28;;;-0.67;66.23
75699;BME280;64313;51.018;13.742;2023-03-12T04:13:34;99405.34;;;-0.67;65.81
75699;BME280;64313;51.018;13.742;2023-03-12T04:15:59;99405.25;;;-0.65;65.99
75699;BME280;64313;51.018;13.742;2023-03-12T04:18:25;99402.72;;;-0.67;65.95
75699;BME280;64313;51.018;13.742;2023-03-12T04:20:50;99408.25;;;-0.70;66.18
75699;BME280;64313;51.018;13.742;2023-03-12T04:23:16;99401.09;;;-0.68;66.01
75699;BME280;64313;51.018;13.742;2023-03-12T04:25:41;99406.34;;;-0.68;66.08
75699;BME280;64313;51.018;13.742;2023-03-12T04:28:07;99405.91;;;-0.73;65.81
75699;BME280;64313;51.018;13.742;2023-03-12T04:30:34;99407.28;;;-0.69;65.97
75699;BME280;64313;51.018;13.742;2023-03-12T04:33:04;99412.81;;;-0.72;65.70
75699;BME280;64313;51.018;13.742;2023-03-12T04:35:29;99414.22;;;-0.68;66.19
75699;BME280;64313;51.018;13.742;2023-03-12T04:37:55;99415.31;;;-0.70;65.57
75699;BME280;64313;51.018;13.742;2023-03-12T04:40:20;99413.50;;;-0.70;66.02
75699;BME280;64313;51.018;13.742;2023-03-12T04:42:46;99413.78;;;-0.73;65.64
75699;BME280;64313;51.018;13.742;2023-03-12T04:45:12;99413.50;;;-0.70;65.89
75699;BME280;64313;51.018;13.742;2023-03-12T04:47:42;99417.22;;;-0.72;65.07
75699;BME280;64313;51.018;13.742;2023-03-12T04:50:09;99414.59;;;-0.72;65.76
75699;BME280;64313;51.018;13.742;2023-03-12T04:52:35;99417.06;;;-0.71;65.14
75699;BME280;64313;51.018;13.742;2023-03-12T04:55:01;99413.50;;;-0.70;65.64
75699;BME280;64313;51.018;13.742;2023-03-12T04:57:26;99420.16;;;-0.66;65.69
75699;BME280;64313;51.018;13.742;2023-03-12T04:59:52;99423.72;;;-0.67;65.07
75699;BME280;64313;51.018;13.742;2023-03-12T05:02:17;99423.84;;;-0.68;65.50
75699;BME280;64313;51.018;13.742;2023-03-12T05:04:43;99423.72;;;-0.67;64.94
75699;BME280;64313;51.018;13.742;2023-03-12T05:07:08;99430.66;;;-0.66;64.97
75699;BME280;64313;51.018;13.742;2023-03-12T05:09:34;99429.25;;;-0.70;65.41
75699;BME280;64313;51.018;13.742;2023-03-12T05:12:00;99433.69;;;-0.70;65.22
75699;BME280;64313;51.018;13.742;2023-03-12T05:14:25;99439.75;;;-0.70;64.72
75699;BME280;64313;51.018;13.742;2023-03-12T05:16:51;99440.56;;;-0.69;64.84
75699;BME280;64313;51.018;13.742;2023-03-12T05:19:16;99437.41;;;-0.73;65.36
75699;BME280;64313;51.018;13.742;2023-03-12T05:21:42;99434.50;;;-0.70;65.60
75699;BME280;64313;51.018;13.742;2023-03-12T05:24:08;99436.31;;;-0.70;64.86
75699;BME280;64313;51.018;13.742;2023-03-12T05:26:34;99438.06;;;-0.71;65.74
75699;BME280;64313;51.018;13.742;2023-03-12T05:29:21;99445.13;;;-0.71;65.27
75699;BME280;64313;51.018;13.742;2023-03-12T05:31:47;99447.75;;;-0.71;65.39
75699;BME280;64313;51.018;13.742;2023-03-12T05:34:14;99442.66;;;-0.73;65.64
75699;BME280;64313;51.018;13.742;2023-03-12T05:36:43;99441.69;;;-0.72;66.08
75699;BME280;64313;51.018;13.742;2023-03-12T05:39:09;99443.47;;;-0.72;65.66
75699;BME280;64313;51.018;13.742;2023-03-12T05:41:35;99439.75;;;-0.70;65.95
75699;BME280;64313;51.018;13.742;2023-03-12T05:44:13;99436.97;;;-0.68;65.97
75699;BME280;64313;51.018;13.742;2023-03-12T05:46:42;99438.66;;;-0.67;65.46
75699;BME280;64313;51.018;13.742;2023-03-12T05:49:08;99433.28;;;-0.66;65.55
75699;BME280;64313;51.018;13.742;2023-03-12T05:51:34;99438.53;;;-0.66;65.53
75699;BME280;64313;51.018;13.742;2023-03-12T05:54:00;99437.44;;;-0.63;64.96
75699;BME280;64313;51.018;13.742;2023-03-12T05:56:25;99450.69;;;-0.64;64.97
75699;BME280;64313;51.018;13.742;2023-03-12T05:58:51;99441.41;;;-0.69;65.66
75699;BME280;64313;51.018;13.742;2023-03-12T06:01:26;99441.97;;;-0.65;65.68
75699;BME280;64313;51.018;13.742;2023-03-12T06:03:54;99440.88;;;-0.62;65.53
75699;BME280;64313;51.018;13.742;2023-03-12T06:06:20;99438.38;;;-0.64;65.54
75699;BME280;64313;51.018;13.742;2023-03-12T06:08:46;99433.00;;;-0.62;65.21
75699;BME280;64313;51.018;13.742;2023-03-12T06:11:11;99438.09;;;-0.61;65.18
75699;BME280;64313;51.018;13.742;2023-03-12T06:13:37;99438.81;;;-0.59;65.13
75699;BME280;64313;51.018;13.742;2023-03-12T06:16:03;99432.59;;;-0.58;65.32
75699;BME280;64313;51.018;13.742;2023-03-12T06:18:30;99440.91;;;-0.53;65.93
75699;BME280;64313;51.018;13.742;2023-03-12T06:21:13;99436.91;;;-0.47;65.12
75699;BME280;64313;51.018;13.742;2023-03-12T06:23:40;99438.16;;;-0.41;65.31
75699;BME280;64313;51.018;13.742;2023-03-12T06:26:10;99440.22;;;-0.35;64.44
75699;BME280;64313;51.018;13.742;2023-03-12T06:28:36;99443.16;;;-0.29;64.99
75699;BME280;64313;51.018;13.742;2023-03-12T06:31:02;99446.75;;;-0.20;64.67
75699;BME280;64313;51.018;13.742;2023-03-12T06:33:27;99446.91;;;-0.12;64.54
75699;BME280;64313;51.018;13.742;2023-03-12T06:35:57;99449.25;;;0.01;64.92
75699;BME280;64313;51.018;13.742;2023-03-12T06:38:24;99445.22;;;0.07;64.32
75699;BME280;64313;51.018;13.742;2023-03-12T06:40:57;99440.53;;;0.10;64.18
75699;BME280;64313;51.018;13.742;2023-03-12T06:43:24;99435.72;;;0.15;64.35
75699;BME280;64313;51.018;13.742;2023-03-12T06:45:49;99444.81;;;0.21;63.73
75699;BME280;64313;51.018;13.742;2023-03-12T06:48:15;99446.47;;;0.22;63.59
75699;BME280;64313;51.018;13.742;2023-03-12T06:50:40;99445.06;;;0.28;63.48
75699;BME280;64313;51.018;13.742;2023-03-12T06:53:06;99450.59;;;0.34;63.72
75699;BME280;64313;51.018;13.742;2023-03-12T06:55:31;99452.81;;;0.39;63.36
75699;BME280;64313;51.018;13.742;2023-03-12T06:57:56;99448.97;;;0.43;63.21
75699;BME280;64313;51.018;13.742;2023-03-12T07:00:21;99450.03;;;0.50;63.20
75699;BME280;64313;51.018;13.742;2023-03-12T07:02:47;99443.09;;;0.59;63.09
75699;BME280;64313;51.018;13.742;2023-03-12T07:05:13;99446.97;;;0.64;63.11
75699;BME280;64313;51.018;13.742;2023-03-12T07:07:38;99442.91;;;0.70;63.02
75699;BME280;64313;51.018;13.742;2023-03-12T07:10:04;99445.81;;;0.77;62.69
75699;BME280;64313;51.018;13.742;2023-03-12T07:12:31;99445.41;;;0.81;63.00
75699;BME280;64313;51.018;13.742;2023-03-12T07:14:56;99440.53;;;0.86;62.43
75699;BME280;64313;51.018;13.742;2023-03-12T07:17:23;99439.94;;;0.93;62.56
75699;BME280;64313;51.018;13.742;2023-03-12T07:19:49;99438.41;;;1.00;62.40
75699;BME280;64313;51.018;13.742;2023-03-12T07:22:15;99436.03;;;1.06;62.24
75699;BME280;64313;51.018;13.742;2023-03-12T07:24:40;99434.75;;;1.11;62.21
75699;BME280;64313;51.018;13.742;2023-03-12T07:27:05;99436.13;;;1.15;61.62
75699;BME280;64313;51.018;13.742;2023-03-12T07:29:31;99448.03;;;1.19;60.87
75699;BME280;64313;51.018;13.742;2023-03-12T07:31:56;99450.19;;;1.23;60.98
75699;BME280;64313;51.018;13.742;2023-03-12T07:34:21;99447.44;;;1.25;61.06
75699;BME280;64313;51.018;13.742;2023-03-12T07:36:46;99453.09;;;1.30;61.35
75699;BME280;64313;51.018;13.742;2023-03-12T07:39:12;99453.63;;;1.34;61.29
75699;BME280;64313;51.018;13.742;2023-03-12T07:41:37;99447.91;;;1.38;61.42
75699;BME280;64313;51.018;13.742;2023-03-12T07:44:03;99444.31;;;1.39;61.41
75699;BME280;64313;51.018;13.742;2023-03-12T07:46:29;99445.00;;;1.41;60.50
75699;BME280;64313;51.018;13.742;2023-03-12T07:48:54;99441.25;;;1.44;61.12
75699;BME280;64313;51.018;13.742;2023-03-12T07:51:20;99447.56;;;1.51;60.39
75699;BME280;64313;51.018;13.742;2023-03-12T07:53:45;99446.16;;;1.57;61.15
75699;BME280;64313;51.018;13.742;2023-03-12T07:56:10;99449.88;;;1.64;60.69
75699;BME280;64313;51.018;13.742;2023-03-12T07:58:36;99452.59;;;1.72;60.49
75699;BME280;64313;51.018;13.742;2023-03-12T08:01:02;99458.22;;;1.77;59.41
75699;BME280;64313;51.018;13.742;2023-03-12T08:03:28;99461.06;;;1.84;59.62
75699;BME280;64313;51.018;13.742;2023-03-12T08:05:59;99458.16;;;1.87;60.50
75699;BME280;64313;51.018;13.742;2023-03-12T08:08:25;99459.38;;;1.92;60.32
75699;BME280;64313;51.018;13.742;2023-03-12T08:10:51;99466.00;;;1.97;59.83
75699;BME280;64313;51.018;13.742;2023-03-12T08:13:16;99464.56;;;2.02;60.82
75699;BME280;64313;51.018;13.742;2023-03-12T08:15:42;99464.13;;;2.07;61.84
75699;BME280;64313;51.018;13.742;2023-03-12T08:18:07;99470.06;;;2.09;61.66
75699;BME280;64313;51.018;13.742;2023-03-12T08:20:33;99459.38;;;2.10;60.99
75699;BME280;64313;51.018;13.742;2023-03-12T08:22:58;99466.16;;;2.13;61.81
75699;BME280;64313;51.018;13.742;2023-03-12T08:25:23;99460.56;;;2.16;61.85
75699;BME280;64313;51.018;13.742;2023-03-12T08:27:49;99462.75;;;2.21;61.72
75699;BME280;64313;51.018;13.742;2023-03-12T08:30:14;99469.53;;;2.23;61.31
75699;BME280;64313;51.018;13.742;2023-03-12T08:32:40;99467.72;;;2.24;61.44
75699;BME280;64313;51.018;13.742;2023-03-12T08:35:05;99477.13;;;2.26;59.91
75699;BME280;64313;51.018;13.742;2023-03-12T08:37:31;99473.22;;;2.30;60.99
75699;BME280;64313;51.018;13.742;2023-03-12T08:39:57;99471.78;;;2.36;60.64
75699;BME280;64313;51.018;13.742;2023-03-12T08:42:22;99473.81;;;2.42;60.96
75699;BME280;64313;51.018;13.742;2023-03-12T08:44:47;99471.38;;;2.49;61.11
75699;BME280;64313;51.018;13.742;2023-03-12T08:47:13;99468.97;;;2.55;61.26
75699;BME280;64313;51.018;13.742;2023-03-12T08:49:38;99465.69;;;2.62;60.24
75699;BME280;64313;51.018;13.742;2023-03-12T08:52:03;99463.41;;;2.67;59.26
75699;BME280;64313;51.018;13.742;2023-03-12T08:54:29;99467.28;;;2.72;60.35
75699;BME280;64313;51.018;13.742;2023-03-12T08:56:54;99458.03;;;2.76;59.87
75699;BME280;64313;51.018;13.742;2023-03-12T08:59:20;99456.59;;;2.82;59.86
75699;BME280;64313;51.018;13.742;2023-03-12T09:01:46;99453.81;;;2.84;58.42
75699;BME280;64313;51.018;13.742;2023-03-12T09:04:12;99451.53;;;2.89;58.64
75699;BME280;64313;51.018;13.742;2023-03-12T09:06:37;99454.53;;;2.94;59.51
75699;BME280;64313;51.018;13.742;2023-03-12T09:09:03;99448.78;;;2.98;58.50
75699;BME280;64313;51.018;13.742;2023-03-12T09:11:33;99449.00;;;3.05;58.65
75699;BME280;64313;51.018;13.742;2023-03-12T09:13:59;99448.34;;;3.11;58.05
75699;BME280;64313;51.018;13.742;2023-03-12T09:16:25;99452.97;;;3.17;57.44
75699;BME280;64313;51.018;13.742;2023-03-12T09:18:50;99445.41;;;3.22;57.53
75699;BME280;64313;51.018;13.742;2023-03-12T09:21:16;99444.13;;;3.27;57.07
75699;BME280;64313;51.018;13.742;2023-03-12T09:23:42;99446.44;;;3.30;57.55
75699;BME280;64313;51.018;13.742;2023-03-12T09:26:11;99448.59;;;3.34;57.57
75699;BME280;64313;51.018;13.742;2023-03-12T09:28:36;99438.56;;;3.38;57.50
75699;BME280;64313;51.018;13.742;2023-03-12T09:31:03;99430.31;;;3.41;56.15
75699;BME280;64313;51.018;13.742;2023-03-12T09:33:29;99432.47;;;3.45;57.26
75699;BME280;64313;51.018;13.742;2023-03-12T09:35:56;99429.34;;;3.50;54.76
75699;BME280;64313;51.018;13.742;2023-03-12T09:38:21;99422.75;;;3.54;55.63
75699;BME280;64313;51.018;13.742;2023-03-12T09:40:47;99426.88;;;3.57;54.07
75699;BME280;64313;51.018;13.742;2023-03-12T09:43:33;99421.13;;;3.61;54.99
75699;BME280;64313;51.018;13.742;2023-03-12T09:46:01;99420.66;;;3.66;54.14
75699;BME280;64313;51.018;13.742;2023-03-12T09:48:34;99423.28;;;3.74;54.08
75699;BME280;64313;51.018;13.742;2023-03-12T09:51:32;99430.25;;;3.83;54.48
75699;BME280;64313;51.018;13.742;2023-03-12T09:54:03;99429.59;;;3.89;54.40
75699;BME280;64313;51.018;13.742;2023-03-12T09:56:30;99425.66;;;3.94;54.59
75699;BME280;64313;51.018;13.742;2023-03-12T09:58:55;99427.63;;;4.00;55.19
75699;BME280;64313;51.018;13.742;2023-03-12T10:01:32;99417.88;;;4.08;53.06
75699;BME280;64313;51.018;13.742;2023-03-12T10:06:51;99416.88;;;4.18;53.79
75699;BME280;64313;51.018;13.742;2023-03-12T10:12:28;99405.16;;;4.28;52.71
75699;BME280;64313;51.018;13.742;2023-03-12T10:17:42;99412.75;;;4.40;53.73
75699;BME280;64313;51.018;13.742;2023-03-12T10:25:41;99404.78;;;4.56;50.91
75699;BME280;64313;51.018;13.742;2023-03-12T10:28:15;99396.03;;;4.64;51.72
75699;BME280;64313;51.018;13.742;2023-03-12T10:30:45;99393.50;;;4.70;50.53
75699;BME280;64313;51.018;13.742;2023-03-12T10:33:15;99396.81;;;4.72;49.40
75699;BME280;64313;51.018;13.742;2023-03-12T10:35:41;99381.75;;;4.73;49.91
75699;BME280;64313;51.018;13.742;2023-03-12T10:38:14;99371.16;;;4.73;50.48
75699;BME280;64313;51.018;13.742;2023-03-12T10:40:40;99372.63;;;4.75;51.41
75699;BME280;64313;51.018;13.742;2023-03-12T10:43:06;99373.78;;;4.81;49.73
75699;BME280;64313;51.018;13.742;2023-03-12T10:45:42;99366.13;;;4.86;50.90
75699;BME280;64313;51.018;13.742;2023-03-12T10:48:18;99380.19;;;4.95;49.87
75699;BME280;64313;51.018;13.742;2023-03-12T10:53:28;99363.09;;;5.06;50.06
75699;BME280;64313;51.018;13.742;2023-03-12T10:56:08;99363.59;;;5.09;50.94
75699;BME280;64313;51.018;13.742;2023-03-12T11:01:02;99365.38;;;5.17;49.48
75699;BME280;64313;51.018;13.742;2023-03-12T11:03:28;99352.44;;;5.22;48.22
75699;BME280;64313;51.018;13.742;2023-03-12T11:05:57;99352.06;;;5.25;49.30
75699;BME280;64313;51.018;13.742;2023-03-12T11:08:27;99358.69;;;5.29;49.08
75699;BME280;64313;51.018;13.742;2023-03-12T11:10:54;99351.22;;;5.33;50.49
75699;BME280;64313;51.018;13.742;2023-03-12T11:13:40;99350.69;;;5.37;50.49
75699;BME280;64313;51.018;13.742;2023-03-12T11:18:53;99350.16;;;5.42;49.78
75699;BME280;64313;51.018;13.742;2023-03-12T11:21:20;99342.84;;;5.44;50.68
75699;BME280;64313;51.018;13.742;2023-03-12T11:26:21;99335.38;;;5.48;50.79
75699;BME280;64313;51.018;13.742;2023-03-12T11:29:11;99329.72;;;5.51;50.97
75699;BME280;64313;51.018;13.742;2023-03-12T11:31:54;99329.38;;;5.54;49.55
75699;BME280;64313;51.018;13.742;2023-03-12T11:34:26;99328.38;;;5.55;49.36
75699;BME280;64313;51.018;13.742;2023-03-12T11:43:00;99320.66;;;5.68;51.35
75699;BME280;64313;51.018;13.742;2023-03-12T11:45:53;99317.94;;;5.76;50.89
75699;BME280;64313;51.018;13.742;2023-03-12T11:56:37;99287.03;;;6.06;49.91
75699;BME280;64313;51.018;13.742;2023-03-12T12:10:12;99248.88;;;6.37;48.08
75699;BME280;64313;51.018;13.742;2023-03-12T12:12:47;99234.06;;;6.43;46.25
75699;BME280;64313;51.018;13.742;2023-03-12T12:15:36;99238.81;;;6.47;47.01
75699;BME280;64313;51.018;13.742;2023-03-12T12:18:25;99236.72;;;6.58;46.39
75699;BME280;64313;51.018;13.742;2023-03-12T12:21:21;99234.13;;;6.64;46.16
75699;BME280;64313;51.018;13.742;2023-03-12T12:23:58;99227.25;;;6.70;46.64
75699;BME280;64313;51.018;13.742;2023-03-12T12:26:37;99225.69;;;6.76;47.44
75699;BME280;64313;51.018;13.742;2023-03-12T12:32:17;99221.63;;;6.80;47.82
75699;BME280;64313;51.018;13.742;2023-03-12T12:35:08;99216.16;;;6.81;48.31
75699;BME280;64313;51.018;13.742;2023-03-12T12:40:21;99199.00;;;6.84;49.23
75699;BME280;64313;51.018;13.742;2023-03-12T12:46:18;99190.84;;;6.85;49.43
75699;BME280;64313;51.018;13.742;2023-03-12T12:49:14;99196.53;;;6.82;49.15
75699;BME280;64313;51.018;13.742;2023-03-12T13:01:48;99179.19;;;6.65;50.22
75699;BME280;64313;51.018;13.742;2023-03-12T13:07:47;99175.81;;;6.56;50.61
75699;BME280;64313;51.018;13.742;2023-03-12T13:12:56;99173.91;;;6.50;50.86
75699;BME280;64313;51.018;13.742;2023-03-12T13:15:39;99176.94;;;6.47;50.59
75699;BME280;64313;51.018;13.742;2023-03-12T13:18:25;99172.00;;;6.44;50.87
75699;BME280;64313;51.018;13.742;2023-03-12T13:26:55;99157.66;;;6.38;50.47
75699;BME280;64313;51.018;13.742;2023-03-12T13:37:26;99167.53;;;6.29;49.83
75699;BME280;64313;51.018;13.742;2023-03-12T13:40:54;99168.53;;;6.28;50.80
75699;BME280;64313;51.018;13.742;2023-03-12T14:22:12;99162.44;;;6.13;51.32
75699;BME280;64313;51.018;13.742;2023-03-12T14:24:52;99160.16;;;6.10;51.61
75699;BME280;64313;51.018;13.742;2023-03-12T14:27:29;99161.34;;;6.07;52.49
75699;BME280;64313;51.018;13.742;2023-03-12T14:30:23;99172.31;;;6.04;53.93
75699;BME280;64313;51.018;13.742;2023-03-12T14:33:00;99157.78;;;6.00;54.73
75699;BME280;64313;51.018;13.742;2023-03-12T14:35:36;99154.66;;;5.97;55.37
75699;BME280;64313;51.018;13.742;2023-03-12T14:41:24;99157.38;;;5.89;57.12
75699;BME280;64313;51.018;13.742;2023-03-12T14:44:03;99158.72;;;5.84;58.35
75699;BME280;64313;51.018;13.742;2023-03-12T14:46:57;99155.81;;;5.79;59.59
75699;BME280;64313;51.018;13.742;2023-03-12T14:55:25;99157.00;;;5.62;61.83
75699;BME280;64313;51.018;13.742;2023-03-12T15:20:53;99109.25;;;5.32;66.83
75699;BME280;64313;51.018;13.742;2023-03-12T15:23:21;99113.25;;;5.28;67.23
75699;BME280;64313;51.018;13.742;2023-03-12T15:25:47;99109.94;;;5.26;67.52
75699;BME280;64313;51.018;13.742;2023-03-12T15:30:38;99109.31;;;5.24;67.45
75699;BME280;64313;51.018;13.742;2023-03-12T15:35:37;99092.31;;;5.18;67.64
75699;BME280;64313;51.018;13.742;2023-03-12T15:38:03;99072.28;;;5.16;67.53
75699;BME280;64313;51.018;13.742;2023-03-12T15:40:28;99067.63;;;5.18;67.69
75699;BME280;64313;51.018;13.742;2023-03-12T15:42:55;99062.50;;;5.16;68.26
75699;BME280;64313;51.018;13.742;2023-03-12T15:45:38;99057.03;;;5.18;68.77
75699;BME280;64313;51.018;13.742;2023-03-12T15:48:37;99047.25;;;5.18;68.13